KFOK/FOK METAR and TAF weather

Enter ICAO airport designator
Station Type Date Time Source
KFOK METAR 2022/10/01 04:53 UTC NOAA

KFOK 010453Z AUTO 06007KT 10SM SCT120 14/11 A3014 RMK AO2 RAB11E23 SLP206 P0000 T01440111 401830111


Station Type Date Time Source
KFOK Decoded METAR 2022/10/01 04:53 UTC NOAA

THE GABRESKI AIRPORT, NY, United States (KFOK) 40-51N 072-37W 33M
Oct 01, 2022 - 12:53 AM EDT / 2022.10.01 0453 UTC
Wind: from the ENE (060 degrees) at 8 MPH (7 KT):0
Visibility: 10 mile(s):0
Sky conditions: partly cloudy
Precipitation last hour: A trace
Temperature: 57.9 F (14.4 C)
Dew Point: 52.0 F (11.1 C)
Relative Humidity: 80%
Pressure (altimeter): 30.14 in. Hg (1020 hPa)
ob: KFOK 010453Z AUTO 06007KT 10SM SCT120 14/11 A3014 RMK AO2 RAB11E23 SLP206 P0000 T01440111 401830111
cycle: 5

Station Type Date Time Source
KFOK TAF UTC NOAA

Error!

Example: see airport list